Home > Products > Valid Products > TAF

000
FTUS44 KSJT 290500 AAF
TAFABI
TAF AMD
KABI 290503Z 2905/2924 07014KT P6SM -TSRA SCT050CB BKN080
     FM290530 07007KT P6SM VCTS SCT050CB BKN250
     FM290800 11007KT P6SM SCT080 BKN250
     FM291400 19009KT P6SM BKN250
     FM291800 12007KT P6SM SCT060=



000
FTUS44 KSJT 290500 AAB
TAFSJT
TAF AMD
KSJT 290502Z 2905/2924 36008KT P6SM VCSH SCT060 BKN250
     FM290800 VRB05KT P6SM BKN250
     FM291500 19009KT P6SM SCT250
     FM292100 13007KT P6SM SCT070=



000
FTUS44 KSJT 290400 AAB
TAFJCT
TAF AMD
KJCT 290440Z 2905/2924 15010KT P6SM BKN250
     FM291100 15004KT P6SM SCT020
     FM291500 17006KT P6SM SCT250
     FM292100 13008KT P6SM BKN060=



000
FTUS44 KSJT 290400 AAA
TAFJCT
TAF AMD
KJCT 290437Z 2905/2924 15010KT P6SM BKN250
     FM291100 15004KT P6SM SCT025
     FM291500 17006KT P6SM SCT250
     FM292100 13008KT P6SM BKN060=



000
FTUS44 KSJT 290400 AAA
TAFSJT
TAF AMD
KSJT 290435Z 2905/2924 16006KT P6SM FEW090 BKN250
     FM290615 36008KT P6SM VCSH SCT060 BKN250
     FM290800 VRB05KT P6SM BKN250
     FM291500 19009KT P6SM SCT250
     FM292100 13007KT P6SM SCT070=



000
FTUS44 KSJT 290400 AAE
TAFABI
TAF AMD
KABI 290432Z 2905/2924 02014KT P6SM -TSRA SCT050CB BKN080
     FM290530 07007KT P6SM VCTS SCT050CB BKN250
     FM290800 11007KT P6SM SCT080 BKN250
     FM291400 19009KT P6SM BKN250
     FM291800 12007KT P6SM SCT060=



000
FTUS44 KSJT 290400 AAD
TAFABI
TAF AMD
KABI 290402Z 2904/2924 02014KT P6SM -TSRA SCT050CB BKN080
      TEMPO 2904/2905 5SM TSRA BKN035CB
     FM290500 13009KT P6SM SCT080 BKN250
     FM291100 17008KT P6SM BKN250=



000
FTUS44 KSJT 290300 AAC
TAFABI
TAF AMD
KABI 290349Z 2904/2924 35025G35KT P6SM -TSRA SCT050CB BKN080
      TEMPO 2904/2905 5SM TSRA BKN035CB
     FM290500 13009KT P6SM SCT080 BKN250
     FM291100 17008KT P6SM BKN250=



000
FTUS44 KSJT 290200 AAB
TAFABI
TAF AMD
KABI 290253Z 2903/2924 35026G36KT P6SM VCTS SCT060CB BKN250
      TEMPO 2903/2905 4SM TSRA BKN030CB
     FM290500 13009KT P6SM SCT080 BKN250
     FM291100 17008KT P6SM BKN250=



000
FTUS44 KSJT 290200 AAA
TAFABI
TAF AMD
KABI 290219Z 2902/2924 15011KT P6SM SCT060 BKN250
     FM290230 35022G32KT P6SM VCTS SCT060CB BKN100
     FM290300 36010G20KT P6SM -TSRA SCT040 BKN060CB
      TEMPO 2903/2905 3SM +TSRA BKN030CB
     FM290500 13009KT P6SM SCT080 BKN250
     FM291100 17008KT P6SM BKN250=



000
FTUS44 KSJT 282300
TAFABI
TAF
KABI 282331Z 2900/2924 15012G19KT P6SM FEW070 BKN250
     FM290300 13009KT P6SM BKN250
     FM291100 17008KT P6SM BKN250=



000
FTUS44 KSJT 282300
TAFJCT
TAF
KJCT 282331Z 2900/2924 VRB06KT P6SM SCT070
     FM290200 15005KT P6SM SCT250
     FM291000 15004KT P6SM BKN025=



000
FTUS44 KSJT 282300
TAFSJT
TAF
KSJT 282331Z 2900/2924 15009KT P6SM FEW070 BKN250
     FM290200 16006KT P6SM BKN250
     FM291500 18010KT P6SM SCT250=



000
FTUS44 KSJT 282300 AAA
TAFJCT
TAF AMD
KJCT 282329Z 2823/2918 13007KT P6SM SCT070
     FM290300 15005KT P6SM BKN250
     FM291000 16004KT P6SM SCT020
     FM291500 19006KT P6SM SCT250=



000
FTUS44 KSJT 282300 AAA
TAFSJT
TAF AMD
KSJT 282321Z 2823/2918 15009KT P6SM SCT070
     FM290200 16006KT P6SM BKN250
     FM291500 18010KT P6SM SCT250=



000
FTUS44 KSJT 282300 AAA
TAFABI
TAF AMD
KABI 282316Z 2823/2918 15012G19KT P6SM SCT070
     FM290300 13009KT P6SM BKN250
     FM291100 17008KT P6SM BKN250=



000
FTUS44 KSJT 281700
TAFJCT
TAF
KJCT 281720Z 2818/2918 VRB06KT P6SM SCT070
     FM290200 15005KT P6SM SCT250
     FM291000 15004KT P6SM BKN025=



000
FTUS44 KSJT 281700
TAFABI
TAF
KABI 281720Z 2818/2918 20011KT P6SM SCT070
     FM282300 14008KT P6SM VCTS SCT070CB
     FM290200 13008KT P6SM BKN250=



000
FTUS44 KSJT 281700
TAFSJT
TAF
KSJT 281720Z 2818/2918 18011KT P6SM SCT070
     FM290000 13007KT P6SM VCTS SCT070CB
     FM290300 16006KT P6SM BKN250=



000
FTUS44 KSJT 281100
TAFABI
TAF
KABI 281139Z 2812/2912 16007KT P6SM SKC
     FM281500 19011KT P6SM FEW060
     FM282300 14008KT P6SM VCTS SCT070CB
     FM290200 13008KT P6SM BKN250=



000
FTUS44 KSJT 281100
TAFSJT
TAF
KSJT 281139Z 2812/2912 18008KT P6SM SKC
     FM281900 14007KT P6SM SCT070
     FM290000 13007KT P6SM VCTS SCT070CB
     FM290300 16006KT P6SM BKN250=



000
FTUS44 KSJT 281100
TAFJCT
TAF
KJCT 281139Z 2812/2912 16006KT P6SM SKC
     FM281900 14007KT P6SM SCT060
     FM290200 15005KT P6SM SCT250
     FM291000 15004KT P6SM BKN025=



000
FTUS44 KSJT 280500 RRA
TAFSJT
TAF
KSJT 280547Z 2806/2906 15005KT P6SM SKC
     FM281500 18010KT P6SM FEW060
     FM281900 13007KT P6SM SCT070=



000
FTUS44 KSJT 280500 RRA
TAFJCT
TAF
KJCT 280547Z 2806/2906 00000KT P6SM SKC
     FM281500 16008KT P6SM FEW060
     FM281900 14006KT P6SM SCT060=



000
FTUS44 KSJT 280500 RRA
TAFABI
TAF
KABI 280547Z 2806/2906 16008KT P6SM SKC
     FM281500 19011KT P6SM FEW060
     FM282300 15008KT P6SM VCTS SCT070CB
     FM290200 12008KT P6SM BKN250=



000
FTUS44 KSJT 272300
TAFJCT
TAF
KJCT 272328Z 2800/2824 VRB05KT P6SM SCT060
     FM281500 17010KT P6SM SKC=



000
FTUS44 KSJT 272300
TAFSJT
TAF
KSJT 272328Z 2800/2824 08008KT P6SM SCT060
     FM281500 18011KT P6SM SKC=



000
FTUS44 KSJT 272300
TAFABI
TAF
KABI 272328Z 2800/2824 12010KT P6SM SCT060
     FM281500 19013KT P6SM SKC
     FM282100 19012KT P6SM VCTS SCT070CB=



000
FTUS44 KSJT 271700
TAFJCT
TAF
KJCT 271731Z 2718/2818 VRB06KT P6SM BKN060
     FM281500 17010KT P6SM SKC=



000
FTUS44 KSJT 271700
TAFABI
TAF
KABI 271731Z 2718/2818 12008KT P6SM BKN060
     FM281500 19013KT P6SM SKC=



000
FTUS44 KSJT 271700
TAFSJT
TAF
KSJT 271731Z 2718/2818 11008KT P6SM SCT060
     FM281500 18012KT P6SM SKC=



000
FTUS44 KSJT 271100
TAFSJT
TAF
KSJT 271123Z 2712/2812 11010KT P6SM FEW080=



000
FTUS44 KSJT 271100
TAFJCT
TAF
KJCT 271123Z 2712/2812 10008KT P6SM FEW060=



000
FTUS44 KSJT 271100
TAFABI
TAF
KABI 271123Z 2712/2812 12010KT P6SM FEW080=



000
FTUS44 KSJT 270500
TAFABI
TAF
KABI 270520Z 2706/2806 12010KT P6SM FEW080=



000
FTUS44 KSJT 270500
TAFSJT
TAF
KSJT 270520Z 2706/2806 11010KT P6SM FEW080=



000
FTUS44 KSJT 270500
TAFJCT
TAF
KJCT 270520Z 2706/2806 10008KT P6SM FEW060=



000
FTUS44 KSJT 262300
TAFSJT
TAF
KSJT 262326Z 2700/2724 11006KT P6SM FEW080=



000
FTUS44 KSJT 262300
TAFJCT
TAF
KJCT 262326Z 2700/2724 11005KT P6SM FEW060=



000
FTUS44 KSJT 262300
TAFABI
TAF
KABI 262326Z 2700/2724 13007KT P6SM VCSH FEW080
     FM270200 11006KT P6SM SCT100=



000
FTUS44 KSJT 261700
TAFABI
TAF
KABI 261720Z 2618/2718 13007KT P6SM FEW080
     FM271200 18007KT P6SM SKC=



000
FTUS44 KSJT 261700
TAFJCT
TAF
KJCT 261720Z 2618/2718 11005KT P6SM FEW060=



000
FTUS44 KSJT 261700
TAFSJT
TAF
KSJT 261720Z 2618/2718 11006KT P6SM FEW080
     FM271200 17005KT P6SM SKC=



000
FTUS44 KSJT 261100
TAFSJT
TAF
KSJT 261130Z 2612/2712 19003KT P6SM SCT250
     FM261700 10007KT P6SM FEW080=



000
FTUS44 KSJT 261100
TAFJCT
TAF
KJCT 261130Z 2612/2712 VRB03KT P6SM SCT250
     FM261700 09007KT P6SM SCT070=



000
FTUS44 KSJT 261100
TAFABI
TAF
KABI 261130Z 2612/2712 18005KT P6SM SCT250
     FM261700 12008KT P6SM FEW080=



000
FTUS44 KSJT 260500
TAFABI
TAF
KABI 260520Z 2606/2706 13007KT P6SM BKN250
     FM260900 18005KT P6SM SCT250
     FM261700 12008KT P6SM FEW080=



000
FTUS44 KSJT 260500
TAFJCT
TAF
KJCT 260520Z 2606/2706 VRB03KT P6SM SCT250
     FM261700 09007KT P6SM SCT070=



000
FTUS44 KSJT 260500
TAFSJT
TAF
KSJT 260520Z 2606/2706 15005KT P6SM BKN250
     FM260900 18003KT P6SM SCT250
     FM261700 10007KT P6SM FEW080=



    US Dept of Commerce
    National Oceanic and Atmospheric Administration
    National Weather Service
    1325 East West Highway
    Silver Spring, MD 20910
    Page Author: NWS Internet Services Team
Disclaimer
Information Quality
Credits
Glossary
Privacy Policy
Freedom of Information Act (FOIA)
About Us
Career Opportunities